createdAt,value
2023-10-15T00:00:52.955Z,92.96
2023-10-15T00:03:41.684Z,92.77
2023-10-15T00:06:10.174Z,92.73
2023-10-15T00:08:38.588Z,92.76
2023-10-15T00:11:14.429Z,92.80
2023-10-15T00:13:42.836Z,92.78
2023-10-15T00:16:22.165Z,92.95
2023-10-15T00:18:51.181Z,93.22
2023-10-15T00:21:19.612Z,93.31
2023-10-15T00:23:48.336Z,93.30
2023-10-15T00:26:17.001Z,93.32
2023-10-15T00:28:48.202Z,93.43
2023-10-15T00:31:17.361Z,93.35
2023-10-15T00:33:47.860Z,93.25
2023-10-15T00:36:16.631Z,93.27
2023-10-15T00:38:45.784Z,93.34
2023-10-15T00:41:15.411Z,93.21
2023-10-15T00:43:52.498Z,93.11
2023-10-15T00:46:21.036Z,93.14
2023-10-15T00:48:50.290Z,93.13
2023-10-15T00:51:21.272Z,93.04
2023-10-15T00:54:00.151Z,93.07
2023-10-15T00:56:34.887Z,93.15
2023-10-15T00:59:09.958Z,93.17
2023-10-15T01:01:43.989Z,93.16
2023-10-15T01:04:16.813Z,93.05
2023-10-15T01:06:50.958Z,92.94
2023-10-15T01:09:28.912Z,92.82
2023-10-15T01:11:59.844Z,92.74
2023-10-15T01:14:33.818Z,92.55
2023-10-15T01:17:03.468Z,92.52
2023-10-15T01:19:35.128Z,92.32
2023-10-15T01:22:11.741Z,92.24
2023-10-15T01:24:43.226Z,92.24
2023-10-15T01:27:12.982Z,92.29
2023-10-15T01:29:45.500Z,92.23
2023-10-15T01:32:20.487Z,92.18
2023-10-15T01:34:54.421Z,92.20
2023-10-15T01:37:25.923Z,92.26
2023-10-15T01:40:11.910Z,92.17
2023-10-15T01:42:42.950Z,92.30
2023-10-15T01:45:14.387Z,92.20
2023-10-15T01:48:05.719Z,92.04
2023-10-15T01:50:41.965Z,92.16
2023-10-15T01:53:10.461Z,92.09
2023-10-15T01:55:46.987Z,92.11
2023-10-15T01:58:15.527Z,92.13
2023-10-15T02:00:43.878Z,91.97
2023-10-15T02:03:13.082Z,91.85
2023-10-15T02:05:47.846Z,91.80
2023-10-15T02:08:23.836Z,91.69
2023-10-15T02:10:56.414Z,91.71
2023-10-15T02:13:27.931Z,91.67
2023-10-15T02:15:57.564Z,91.65
2023-10-15T02:18:31.072Z,91.73
2023-10-15T02:20:59.513Z,91.79
2023-10-15T02:23:29.279Z,91.74
2023-10-15T02:25:59.795Z,91.71
2023-10-15T02:28:33.021Z,91.74
2023-10-15T02:31:05.692Z,91.50
2023-10-15T02:33:34.404Z,91.57
2023-10-15T02:36:10.257Z,91.77
2023-10-15T02:38:40.215Z,91.77
2023-10-15T02:41:08.765Z,91.69
2023-10-15T02:43:49.600Z,91.66
2023-10-15T02:46:24.587Z,91.64
2023-10-15T02:48:56.160Z,91.53
2023-10-15T02:51:24.814Z,91.65
2023-10-15T02:53:55.407Z,91.66
2023-10-15T02:56:24.345Z,91.66
2023-10-15T02:58:52.834Z,91.65
2023-10-15T03:01:21.623Z,91.62
2023-10-15T03:03:56.308Z,91.48
2023-10-15T03:06:29.876Z,91.52
2023-10-15T03:08:59.358Z,91.47
2023-10-15T03:11:33.509Z,91.48
2023-10-15T03:14:02.328Z,91.30
2023-10-15T03:16:34.138Z,91.23
2023-10-15T03:19:20.175Z,91.28
2023-10-15T03:21:48.698Z,91.22
2023-10-15T03:24:19.101Z,91.09
2023-10-15T03:26:50.550Z,91.11
2023-10-15T03:29:22.904Z,90.90
2023-10-15T03:31:55.697Z,90.96
2023-10-15T03:34:24.882Z,90.71
2023-10-15T03:36:59.464Z,90.75
2023-10-15T03:39:34.274Z,90.55
2023-10-15T03:42:18.817Z,90.58
2023-10-15T03:44:50.133Z,90.52
2023-10-15T03:47:24.195Z,90.59
2023-10-15T03:49:53.027Z,90.53
2023-10-15T03:52:21.831Z,90.73
2023-10-15T03:54:51.399Z,90.70
2023-10-15T03:57:29.067Z,90.94
2023-10-15T03:59:57.595Z,91.21
2023-10-15T04:02:49.483Z,91.36
2023-10-15T04:07:54.648Z,91.38
2023-10-15T04:10:33.034Z,91.39
2023-10-15T04:13:02.331Z,91.26
2023-10-15T04:15:31.982Z,91.13
2023-10-15T04:18:00.969Z,91.23
2023-10-15T04:20:37.103Z,91.23
2023-10-15T04:23:05.815Z,91.19
2023-10-15T04:25:34.721Z,91.16
2023-10-15T04:28:13.248Z,91.14
2023-10-15T04:30:42.005Z,91.19
2023-10-15T04:33:16.695Z,91.19
2023-10-15T04:35:45.155Z,91.18
2023-10-15T04:38:31.899Z,91.14
2023-10-15T04:41:00.393Z,91.15
2023-10-15T04:43:29.881Z,91.17
2023-10-15T04:45:58.676Z,91.14
2023-10-15T04:48:38.011Z,91.23
2023-10-15T04:51:07.013Z,91.20
2023-10-15T04:53:35.321Z,91.17
2023-10-15T04:56:06.062Z,91.23
2023-10-15T04:58:35.978Z,91.19
2023-10-15T05:01:07.487Z,91.34
2023-10-15T05:03:40.401Z,91.37
2023-10-15T05:06:12.344Z,91.31
2023-10-15T05:08:48.598Z,91.40
2023-10-15T05:11:23.165Z,91.30
2023-10-15T05:13:52.428Z,91.14
2023-10-15T05:16:20.853Z,90.93
2023-10-15T05:18:49.334Z,90.80
2023-10-15T05:21:17.725Z,90.53
2023-10-15T05:23:47.170Z,90.62
2023-10-15T05:26:17.366Z,90.50
2023-10-15T05:28:45.966Z,90.40
2023-10-15T05:31:14.464Z,90.36
2023-10-15T05:33:42.859Z,90.24
2023-10-15T05:36:11.197Z,90.16
2023-10-15T05:38:39.564Z,90.07
2023-10-15T05:41:08.156Z,90.06
2023-10-15T05:43:37.594Z,90.08
2023-10-15T05:46:05.957Z,90.24
2023-10-15T05:48:34.336Z,90.42
2023-10-15T05:51:04.546Z,90.75
2023-10-15T05:53:33.825Z,91.01
2023-10-15T05:56:02.256Z,91.39
2023-10-15T05:58:30.664Z,91.51
2023-10-15T06:00:59.193Z,91.87
2023-10-15T06:03:27.726Z,91.77
2023-10-15T06:05:59.888Z,91.79
2023-10-15T06:08:28.278Z,91.85
2023-10-15T06:10:56.582Z,91.76
2023-10-15T06:13:25.024Z,91.90
2023-10-15T06:15:53.423Z,91.88
2023-10-15T06:18:21.879Z,91.83
2023-10-15T06:20:50.408Z,91.80
2023-10-15T06:23:19.408Z,91.83
2023-10-15T06:25:47.900Z,91.92
2023-10-15T06:28:16.705Z,91.81
2023-10-15T06:30:45.717Z,91.77
2023-10-15T06:33:14.798Z,91.90
2023-10-15T06:35:44.240Z,91.74
2023-10-15T06:38:12.879Z,91.96
2023-10-15T06:40:41.340Z,91.87
2023-10-15T06:43:09.742Z,91.87
2023-10-15T06:45:38.039Z,91.94
2023-10-15T06:48:06.998Z,91.84
2023-10-15T06:50:35.473Z,91.98
2023-10-15T06:53:06.608Z,91.86
2023-10-15T06:55:36.449Z,91.93
2023-10-15T06:58:04.950Z,91.84
2023-10-15T07:00:33.597Z,91.89
2023-10-15T07:03:02.163Z,91.87
2023-10-15T07:05:31.035Z,91.93
2023-10-15T07:08:00.198Z,91.91
2023-10-15T07:10:29.939Z,91.74
2023-10-15T07:12:58.582Z,91.72
2023-10-15T07:15:27.087Z,91.28
2023-10-15T07:17:55.974Z,90.93
2023-10-15T07:20:29.208Z,90.80
2023-10-15T07:23:01.466Z,90.57
2023-10-15T07:25:30.414Z,90.62
2023-10-15T07:28:00.720Z,90.47
2023-10-15T07:30:32.127Z,90.06
2023-10-15T07:33:01.107Z,90.18
2023-10-15T07:35:31.927Z,89.96
2023-10-15T07:38:04.288Z,89.55
2023-10-15T07:40:36.125Z,89.06
2023-10-15T07:43:06.012Z,88.50
2023-10-15T07:45:34.917Z,88.57
2023-10-15T07:48:06.004Z,87.88
2023-10-15T07:50:36.186Z,88.33
2023-10-15T07:53:06.052Z,87.82
2023-10-15T07:55:35.042Z,87.06
2023-10-15T07:58:03.782Z,87.36
2023-10-15T08:00:32.550Z,87.42
2023-10-15T08:03:02.135Z,86.90
2023-10-15T08:05:34.442Z,86.37
2023-10-15T08:08:06.514Z,86.09
2023-10-15T08:10:37.814Z,86.30
2023-10-15T08:13:10.203Z,85.06
2023-10-15T08:15:39.750Z,84.94
2023-10-15T08:18:08.900Z,85.38
2023-10-15T08:20:37.451Z,85.83
2023-10-15T08:23:06.032Z,85.22
2023-10-15T08:25:35.064Z,84.97
2023-10-15T08:28:04.993Z,84.62
2023-10-15T08:30:34.466Z,84.53
2023-10-15T08:33:05.231Z,84.41
2023-10-15T08:35:34.292Z,83.96
2023-10-15T08:38:02.936Z,84.05
2023-10-15T08:40:38.242Z,83.93
2023-10-15T08:43:21.379Z,83.61
2023-10-15T08:45:50.305Z,81.30
2023-10-15T08:48:19.761Z,81.18
2023-10-15T08:50:49.341Z,80.69
2023-10-15T08:53:17.871Z,80.71
2023-10-15T08:55:46.785Z,81.29
2023-10-15T08:58:17.005Z,81.11
2023-10-15T09:00:48.581Z,80.56
2023-10-15T09:03:18.441Z,79.35
2023-10-15T09:05:46.991Z,78.88
2023-10-15T09:08:16.090Z,78.33
2023-10-15T09:10:45.032Z,78.17
2023-10-15T09:13:18.370Z,77.82
2023-10-15T09:15:49.825Z,78.46
2023-10-15T09:18:19.198Z,78.35
2023-10-15T09:20:53.324Z,78.01
2023-10-15T09:23:25.300Z,78.26
2023-10-15T09:25:57.229Z,77.79
2023-10-15T09:28:31.828Z,77.32
2023-10-15T09:31:10.424Z,77.43
2023-10-15T09:33:40.629Z,76.35
2023-10-15T09:36:09.655Z,76.47
2023-10-15T09:38:38.686Z,76.28
2023-10-15T09:41:07.684Z,76.13
2023-10-15T09:43:37.590Z,76.83
2023-10-15T09:46:10.790Z,76.50
2023-10-15T09:48:40.557Z,75.47
2023-10-15T09:51:10.958Z,73.92
2023-10-15T09:53:43.318Z,74.00
2023-10-15T09:56:13.956Z,74.38
2023-10-15T09:58:44.402Z,73.06
2023-10-15T10:01:29.618Z,72.60
2023-10-15T10:04:41.763Z,72.10
2023-10-15T10:07:39.909Z,73.10
2023-10-15T10:10:33.082Z,72.98
2023-10-15T10:14:03.958Z,72.72
2023-10-15T10:16:33.045Z,73.36
2023-10-15T10:19:03.174Z,73.75
2023-10-15T10:21:33.220Z,72.76
2023-10-15T10:24:04.097Z,72.07
2023-10-15T10:26:33.686Z,71.72
2023-10-15T10:29:03.464Z,71.40
2023-10-15T10:31:36.306Z,71.28
2023-10-15T10:34:04.916Z,71.01
2023-10-15T10:36:53.357Z,70.31
2023-10-15T10:39:23.649Z,69.00
2023-10-15T10:42:00.375Z,68.91
2023-10-15T10:44:29.319Z,69.29
2023-10-15T10:46:58.348Z,69.57
2023-10-15T10:49:41.628Z,69.79
2023-10-15T10:52:16.796Z,69.48
2023-10-15T10:54:48.667Z,69.79
2023-10-15T10:57:21.871Z,69.45
2023-10-15T10:59:50.561Z,69.48
2023-10-15T11:02:19.723Z,69.79
2023-10-15T11:04:48.901Z,69.88
2023-10-15T11:07:18.036Z,70.14
2023-10-15T11:09:46.485Z,70.50
2023-10-15T11:12:17.751Z,70.86
2023-10-15T11:14:46.280Z,71.49
2023-10-15T11:17:16.062Z,71.41
2023-10-15T11:19:44.506Z,71.19
2023-10-15T11:22:15.301Z,71.12
2023-10-15T11:24:46.553Z,71.71
2023-10-15T11:27:15.046Z,71.81
2023-10-15T11:29:45.226Z,71.26
2023-10-15T11:32:14.208Z,70.92
2023-10-15T11:34:43.996Z,71.00
2023-10-15T11:37:14.957Z,70.79
2023-10-15T11:39:49.325Z,69.53
2023-10-15T11:42:20.649Z,69.46
2023-10-15T11:44:57.191Z,69.75
2023-10-15T11:47:26.697Z,69.68
2023-10-15T11:49:55.325Z,68.88
2023-10-15T11:52:24.220Z,69.02
2023-10-15T11:54:53.319Z,68.90
2023-10-15T11:57:27.537Z,67.68
2023-10-15T11:59:59.005Z,68.16
2023-10-15T12:02:30.185Z,67.80
2023-10-15T12:05:02.881Z,67.54
2023-10-15T12:07:31.830Z,67.21
2023-10-15T12:10:01.317Z,66.73
2023-10-15T12:12:29.959Z,67.02
2023-10-15T12:14:58.872Z,66.75
2023-10-15T12:17:27.876Z,67.27
2023-10-15T12:20:12.420Z,67.27
2023-10-15T12:22:47.762Z,66.70
2023-10-15T12:25:16.183Z,66.02
2023-10-15T12:27:44.773Z,66.75
2023-10-15T12:30:28.416Z,66.30
2023-10-15T12:32:59.572Z,66.15
2023-10-15T12:35:28.834Z,66.19
2023-10-15T12:38:03.470Z,65.64
2023-10-15T12:40:35.096Z,65.76
2023-10-15T12:43:10.108Z,66.29
2023-10-15T12:45:39.003Z,66.72
2023-10-15T12:48:09.614Z,66.62
2023-10-15T12:50:38.780Z,66.28
2023-10-15T12:53:07.295Z,66.17
2023-10-15T12:55:35.665Z,66.46
2023-10-15T12:58:04.430Z,66.19
2023-10-15T13:00:34.105Z,65.78
2023-10-15T13:03:04.645Z,64.81
2023-10-15T13:05:34.254Z,63.47
2023-10-15T13:08:04.525Z,63.86
2023-10-15T13:10:33.670Z,64.83
2023-10-15T13:13:02.769Z,65.25
2023-10-15T13:15:31.272Z,65.72
2023-10-15T13:18:00.413Z,65.84
2023-10-15T13:20:28.954Z,65.81
2023-10-15T13:22:57.527Z,65.93
2023-10-15T13:25:26.009Z,66.40
2023-10-15T13:27:54.497Z,66.64
2023-10-15T13:30:23.808Z,67.10
2023-10-15T13:32:52.509Z,67.26
2023-10-15T13:35:21.074Z,67.63
2023-10-15T13:37:49.717Z,67.82
2023-10-15T13:40:20.136Z,67.64
2023-10-15T13:42:49.571Z,67.72
2023-10-15T13:45:19.456Z,67.86
2023-10-15T13:47:48.501Z,68.17
2023-10-15T13:50:20.063Z,68.80
2023-10-15T13:52:49.180Z,69.15
2023-10-15T13:55:18.004Z,69.00
2023-10-15T13:57:46.979Z,68.91
2023-10-15T14:03:11.439Z,67.76
2023-10-15T14:05:42.804Z,67.71
2023-10-15T14:08:13.701Z,68.40
2023-10-15T14:10:42.670Z,68.46
2023-10-15T14:15:45.733Z,68.71
2023-10-15T14:18:14.173Z,69.12
2023-10-15T14:20:42.573Z,69.52
2023-10-15T14:23:11.027Z,69.60
2023-10-15T14:25:39.673Z,69.24
2023-10-15T14:28:10.116Z,69.27
2023-10-15T14:30:38.581Z,69.27
2023-10-15T14:33:07.811Z,68.40
2023-10-15T14:35:36.458Z,68.10
2023-10-15T14:38:06.379Z,68.02
2023-10-15T14:40:35.754Z,68.22
2023-10-15T14:43:04.996Z,67.93
2023-10-15T14:45:35.136Z,67.54
2023-10-15T14:48:05.251Z,67.40
2023-10-15T14:50:35.965Z,66.41
2023-10-15T14:53:07.516Z,65.88
2023-10-15T14:55:36.664Z,65.87
2023-10-15T14:58:07.986Z,65.58
2023-10-15T15:00:36.504Z,65.54
2023-10-15T15:03:05.975Z,65.69
2023-10-15T15:05:36.330Z,65.58
2023-10-15T15:08:06.490Z,65.97
2023-10-15T15:10:38.317Z,66.26
2023-10-15T15:16:22.890Z,67.02
2023-10-15T15:18:51.381Z,67.47
2023-10-15T15:21:19.937Z,67.87
2023-10-15T15:23:48.347Z,68.32
2023-10-15T15:26:16.897Z,68.75
2023-10-15T15:28:45.376Z,69.21
2023-10-15T15:31:13.991Z,69.53
2023-10-15T15:33:43.169Z,69.91
2023-10-15T15:36:12.205Z,70.41
2023-10-15T15:38:40.656Z,70.79
2023-10-15T15:41:09.703Z,70.94
2023-10-15T15:43:39.047Z,71.19
2023-10-15T15:46:13.462Z,71.45
2023-10-15T15:48:42.287Z,71.78
2023-10-15T15:51:12.934Z,72.09
2023-10-15T15:53:41.563Z,72.28
2023-10-15T15:56:10.197Z,72.63
2023-10-15T15:58:39.177Z,72.74
2023-10-15T16:01:09.222Z,73.02
2023-10-15T16:03:50.798Z,73.24
2023-10-15T16:06:17.426Z,73.37
2023-10-15T16:08:46.753Z,73.59
2023-10-15T16:11:17.021Z,73.95
2023-10-15T16:13:45.755Z,74.28
2023-10-15T16:16:15.162Z,74.40
2023-10-15T16:18:43.654Z,74.49
2023-10-15T16:21:12.164Z,74.71
2023-10-15T16:23:40.614Z,74.86
2023-10-15T16:26:09.000Z,75.19
2023-10-15T16:28:37.462Z,75.44
2023-10-15T16:31:06.331Z,75.54
2023-10-15T16:33:34.852Z,75.73
2023-10-15T16:36:05.776Z,75.83
2023-10-15T16:38:34.414Z,75.94
2023-10-15T16:41:03.061Z,76.00
2023-10-15T16:43:32.518Z,76.19
2023-10-15T16:46:01.717Z,76.28
2023-10-15T16:48:30.507Z,76.45
2023-10-15T16:51:13.841Z,76.55
2023-10-15T16:53:50.278Z,76.62
2023-10-15T16:56:19.058Z,76.69
2023-10-15T17:01:37.259Z,76.96
2023-10-15T17:04:06.523Z,77.09
2023-10-15T17:06:35.363Z,77.14
2023-10-15T17:09:06.148Z,77.31
2023-10-15T17:11:34.758Z,77.41
2023-10-15T17:14:03.210Z,77.43
2023-10-15T17:16:31.817Z,77.58
2023-10-15T17:19:00.281Z,77.63
2023-10-15T17:23:03.076Z,77.72
2023-10-15T17:25:32.081Z,77.81
2023-10-15T17:28:00.577Z,77.88
2023-10-15T17:30:29.157Z,78.06
2023-10-15T17:32:57.707Z,77.94
2023-10-15T17:35:27.084Z,77.78
2023-10-15T17:37:55.520Z,78.02
2023-10-15T17:40:23.998Z,78.08
2023-10-15T17:42:52.418Z,78.25
2023-10-15T17:45:24.946Z,78.40
2023-10-15T17:47:57.531Z,78.45
2023-10-15T17:50:26.754Z,78.58
2023-10-15T17:52:55.698Z,78.83
2023-10-15T17:55:30.013Z,79.13
2023-10-15T17:57:58.475Z,79.30
2023-10-15T18:00:28.399Z,79.40
2023-10-15T18:02:57.030Z,79.76
2023-10-15T18:05:25.803Z,80.06
2023-10-15T18:07:54.491Z,80.20
2023-10-15T18:10:23.530Z,80.43
2023-10-15T18:12:53.712Z,80.65
2023-10-15T18:15:22.194Z,80.68
2023-10-15T18:17:50.767Z,80.89
2023-10-15T18:20:20.169Z,80.81
2023-10-15T18:22:49.145Z,80.88
2023-10-15T18:25:18.048Z,81.21
2023-10-15T18:27:46.512Z,81.39
2023-10-15T18:30:15.211Z,81.28
2023-10-15T18:32:43.657Z,81.14
2023-10-15T18:35:16.926Z,81.14
2023-10-15T18:37:45.591Z,81.17
2023-10-15T18:40:15.593Z,81.41
2023-10-15T18:42:44.331Z,81.42
2023-10-15T18:45:13.394Z,81.48
2023-10-15T18:47:41.859Z,81.54
2023-10-15T18:50:11.336Z,81.84
2023-10-15T18:52:40.508Z,81.69
2023-10-15T18:55:10.882Z,81.80
2023-10-15T18:57:40.021Z,81.76
2023-10-15T19:00:09.173Z,81.98
2023-10-15T19:02:37.654Z,81.93
2023-10-15T19:05:06.331Z,81.92
2023-10-15T19:07:34.745Z,81.90
2023-10-15T19:10:04.844Z,82.00
2023-10-15T19:12:36.097Z,82.03
2023-10-15T19:15:05.304Z,82.02
2023-10-15T19:17:33.630Z,82.13
2023-10-15T19:20:09.839Z,82.27
2023-10-15T19:22:40.311Z,82.33
2023-10-15T19:25:08.675Z,82.34
2023-10-15T19:27:37.218Z,82.57
2023-10-15T19:30:07.925Z,82.64
2023-10-15T19:32:36.431Z,82.89
2023-10-15T19:35:05.879Z,82.86
2023-10-15T19:37:36.207Z,83.11
2023-10-15T19:40:12.572Z,83.25
2023-10-15T19:42:41.056Z,83.11
2023-10-15T19:45:10.847Z,83.30
2023-10-15T19:47:39.374Z,83.31
2023-10-15T19:50:08.098Z,83.53
2023-10-15T19:52:36.446Z,83.44
2023-10-15T19:55:06.256Z,83.63
2023-10-15T19:57:35.477Z,83.61
2023-10-15T20:00:19.567Z,83.67
2023-10-15T20:02:48.722Z,83.85
2023-10-15T20:05:17.517Z,83.90
2023-10-15T20:07:46.057Z,83.95
2023-10-15T20:10:18.732Z,83.92
2023-10-15T20:12:50.117Z,84.08
2023-10-15T20:15:20.588Z,84.25
2023-10-15T20:17:50.030Z,84.29
2023-10-15T20:20:20.956Z,84.53
2023-10-15T20:22:49.337Z,84.72
2023-10-15T20:25:20.013Z,84.85
2023-10-15T20:27:49.819Z,84.90
2023-10-15T20:30:18.856Z,84.69
2023-10-15T20:32:56.103Z,84.66
2023-10-15T20:35:25.678Z,84.68
2023-10-15T20:37:55.911Z,84.67
2023-10-15T20:40:27.275Z,84.77
2023-10-15T20:42:56.315Z,84.88
2023-10-15T20:45:27.026Z,84.81
2023-10-15T20:47:55.824Z,84.64
2023-10-15T20:50:24.815Z,84.92
2023-10-15T20:52:53.269Z,84.95
2023-10-15T20:55:21.700Z,84.94
2023-10-15T20:57:52.223Z,84.98
2023-10-15T21:00:21.704Z,84.91
2023-10-15T21:02:51.495Z,85.20
2023-10-15T21:05:20.311Z,85.27
2023-10-15T21:07:50.986Z,85.19
2023-10-15T21:10:23.165Z,85.22
2023-10-15T21:12:52.612Z,85.25
2023-10-15T21:15:21.335Z,85.34
2023-10-15T21:17:49.708Z,85.35
2023-10-15T21:20:19.045Z,85.18
2023-10-15T21:22:47.571Z,85.31
2023-10-15T21:25:16.611Z,85.39
2023-10-15T21:27:45.322Z,85.52
2023-10-15T21:30:14.992Z,85.70
2023-10-15T21:32:43.826Z,85.91
2023-10-15T21:35:12.414Z,86.22
2023-10-15T21:37:41.686Z,86.08
2023-10-15T21:40:15.876Z,86.29
2023-10-15T21:42:45.370Z,86.37
2023-10-15T21:45:14.049Z,86.57
2023-10-15T21:47:43.700Z,86.42
2023-10-15T21:50:17.171Z,86.46
2023-10-15T21:52:48.652Z,86.48
2023-10-15T21:55:17.148Z,86.39
2023-10-15T21:57:45.636Z,86.41
2023-10-15T22:00:29.316Z,86.36
2023-10-15T22:02:58.478Z,86.46
2023-10-15T22:05:27.259Z,86.44
2023-10-15T22:07:55.610Z,86.57
2023-10-15T22:10:27.751Z,86.69
2023-10-15T22:12:57.365Z,86.76
2023-10-15T22:15:26.782Z,86.82
2023-10-15T22:17:58.245Z,87.08
2023-10-15T22:20:29.490Z,87.03
2023-10-15T22:22:59.304Z,86.91
2023-10-15T22:25:27.826Z,87.23
2023-10-15T22:28:02.897Z,87.23
2023-10-15T22:30:39.198Z,87.29
2023-10-15T22:33:11.087Z,87.37
2023-10-15T22:35:42.357Z,87.46
2023-10-15T22:38:15.995Z,87.80
2023-10-15T22:40:45.234Z,87.57
2023-10-15T22:43:14.396Z,87.70
2023-10-15T22:45:43.001Z,87.50
2023-10-15T22:48:14.165Z,87.65
2023-10-15T22:50:46.516Z,87.69
2023-10-15T22:53:18.219Z,87.76
2023-10-15T22:55:47.690Z,87.63
2023-10-15T22:58:19.367Z,87.72
2023-10-15T23:00:51.822Z,87.53
2023-10-15T23:03:21.569Z,87.67
2023-10-15T23:05:53.629Z,87.57
2023-10-15T23:08:22.740Z,87.71
2023-10-15T23:10:51.558Z,87.79
2023-10-15T23:13:20.238Z,87.80
2023-10-15T23:15:48.807Z,87.75
2023-10-15T23:18:21.879Z,87.93
2023-10-15T23:20:53.606Z,87.87
2023-10-15T23:23:22.761Z,87.99
2023-10-15T23:25:53.252Z,88.07
2023-10-15T23:28:25.062Z,87.92
2023-10-15T23:30:57.779Z,87.90
2023-10-15T23:33:30.388Z,88.14
2023-10-15T23:36:00.345Z,88.33
2023-10-15T23:38:29.083Z,88.41
2023-10-15T23:40:57.642Z,88.27
2023-10-15T23:43:26.027Z,88.43
2023-10-15T23:46:07.121Z,88.13
2023-10-15T23:48:38.804Z,88.33
2023-10-15T23:51:16.227Z,88.55
2023-10-15T23:53:45.446Z,88.73
2023-10-15T23:56:24.534Z,88.77
2023-10-15T23:58:58.946Z,88.84
